createdAt,value
2022-10-09T00:01:40.106Z,13.10
2022-10-09T00:04:07.576Z,13.10
2022-10-09T00:06:34.531Z,13.10
2022-10-09T00:09:02.227Z,13.10
2022-10-09T00:11:29.983Z,13.10
2022-10-09T00:13:57.169Z,13.10
2022-10-09T00:16:27.264Z,13.10
2022-10-09T00:18:54.164Z,13.00
2022-10-09T00:21:28.244Z,13.00
2022-10-09T00:23:57.202Z,13.00
2022-10-09T00:26:24.503Z,13.00
2022-10-09T00:28:51.340Z,12.90
2022-10-09T00:31:18.483Z,12.90
2022-10-09T00:33:46.054Z,12.90
2022-10-09T00:36:14.441Z,12.90
2022-10-09T00:38:41.154Z,12.90
2022-10-09T00:41:08.243Z,12.90
2022-10-09T00:43:52.197Z,12.90
2022-10-09T00:46:41.089Z,12.80
2022-10-09T00:49:26.607Z,12.80
2022-10-09T00:51:54.684Z,12.80
2022-10-09T00:54:22.789Z,12.80
2022-10-09T00:56:49.859Z,12.80
2022-10-09T00:59:17.351Z,12.90
2022-10-09T01:01:44.080Z,12.90
2022-10-09T01:04:12.494Z,12.90
2022-10-09T01:07:08.665Z,12.80
2022-10-09T01:09:39.681Z,12.90
2022-10-09T01:12:12.432Z,12.80
2022-10-09T01:14:41.072Z,12.80
2022-10-09T01:17:13.991Z,12.80
2022-10-09T01:19:56.744Z,12.80
2022-10-09T01:22:42.153Z,12.80
2022-10-09T01:25:12.023Z,12.90
2022-10-09T01:27:42.206Z,12.90
2022-10-09T01:30:10.122Z,12.90
2022-10-09T01:32:38.585Z,12.90
2022-10-09T01:35:06.457Z,12.90
2022-10-09T01:37:34.616Z,13.00
2022-10-09T01:40:01.577Z,13.00
2022-10-09T01:42:29.360Z,13.00
2022-10-09T01:44:56.015Z,13.10
2022-10-09T01:47:22.705Z,13.10
2022-10-09T01:50:03.809Z,13.10
2022-10-09T01:52:49.567Z,13.10
2022-10-09T01:55:16.396Z,13.10
2022-10-09T01:58:12.413Z,13.00
2022-10-09T02:00:44.189Z,12.90
2022-10-09T02:03:13.366Z,12.90
2022-10-09T02:05:41.406Z,13.00
2022-10-09T02:08:09.404Z,13.00
2022-10-09T02:10:37.253Z,13.00
2022-10-09T02:13:04.307Z,13.00
2022-10-09T02:15:33.857Z,13.00
2022-10-09T02:18:03.314Z,13.00
2022-10-09T02:20:35.055Z,13.00
2022-10-09T02:23:04.218Z,12.90
2022-10-09T02:25:31.329Z,12.90
2022-10-09T02:27:58.289Z,12.80
2022-10-09T02:30:26.958Z,12.80
2022-10-09T02:32:53.863Z,12.80
2022-10-09T02:35:21.478Z,12.70
2022-10-09T02:37:49.334Z,12.70
2022-10-09T02:40:16.009Z,12.60
2022-10-09T02:42:42.694Z,12.60
2022-10-09T02:45:09.627Z,12.60
2022-10-09T02:47:36.240Z,12.60
2022-10-09T02:50:03.033Z,12.50
2022-10-09T02:52:29.656Z,12.50
2022-10-09T02:54:56.350Z,12.50
2022-10-09T02:57:23.032Z,12.50
2022-10-09T02:59:49.693Z,12.50
2022-10-09T03:02:16.583Z,12.40
2022-10-09T03:04:43.305Z,12.40
2022-10-09T03:07:09.981Z,12.40
2022-10-09T03:09:36.733Z,12.40
2022-10-09T03:12:03.522Z,12.40
2022-10-09T03:14:30.137Z,12.40
2022-10-09T03:16:57.623Z,12.40
2022-10-09T03:19:24.333Z,12.50
2022-10-09T03:21:51.183Z,12.40
2022-10-09T03:24:17.865Z,12.40
2022-10-09T03:26:44.509Z,12.40
2022-10-09T03:29:11.171Z,12.30
2022-10-09T03:31:51.810Z,12.30
2022-10-09T03:34:18.840Z,12.30
2022-10-09T03:36:45.482Z,12.30
2022-10-09T03:39:12.135Z,12.20
2022-10-09T03:41:38.775Z,12.20
2022-10-09T03:44:05.462Z,12.20
2022-10-09T03:46:32.162Z,12.10
2022-10-09T03:48:58.882Z,12.00
2022-10-09T03:51:25.740Z,12.00
2022-10-09T03:53:52.532Z,12.00
2022-10-09T03:56:19.170Z,12.00
2022-10-09T03:58:45.798Z,12.00
2022-10-09T04:01:12.467Z,11.90
2022-10-09T04:03:39.139Z,11.90
2022-10-09T04:06:05.978Z,11.90
2022-10-09T04:08:32.640Z,11.90
2022-10-09T04:11:00.014Z,11.80
2022-10-09T04:13:27.166Z,11.70
2022-10-09T04:15:54.624Z,11.70
2022-10-09T04:18:21.535Z,11.80
2022-10-09T04:20:55.345Z,11.70
2022-10-09T04:23:23.290Z,11.70
2022-10-09T04:25:53.361Z,11.70
2022-10-09T04:28:20.028Z,11.70
2022-10-09T04:30:46.712Z,11.70
2022-10-09T04:33:13.371Z,11.70
2022-10-09T04:35:44.241Z,11.70
2022-10-09T04:38:11.222Z,11.60
2022-10-09T04:40:38.157Z,11.60
2022-10-09T04:43:04.841Z,11.50
2022-10-09T04:45:31.589Z,11.40
2022-10-09T04:47:58.289Z,11.40
2022-10-09T04:50:25.087Z,11.30
2022-10-09T04:52:51.858Z,11.20
2022-10-09T04:55:18.651Z,11.20
2022-10-09T04:57:45.256Z,11.10
2022-10-09T05:00:12.245Z,11.10
2022-10-09T05:02:38.964Z,11.00
2022-10-09T05:05:05.818Z,11.00
2022-10-09T05:07:34.300Z,11.00
2022-10-09T05:10:00.951Z,10.90
2022-10-09T05:12:27.609Z,10.80
2022-10-09T05:14:54.270Z,10.80
2022-10-09T05:17:23.417Z,10.70
2022-10-09T05:19:50.331Z,10.60
2022-10-09T05:22:16.994Z,10.60
2022-10-09T05:24:43.644Z,10.50
2022-10-09T05:27:10.345Z,10.50
2022-10-09T05:29:37.033Z,10.40
2022-10-09T05:32:03.765Z,10.30
2022-10-09T05:34:30.464Z,10.30
2022-10-09T05:36:57.139Z,10.30
2022-10-09T05:39:23.786Z,10.20
2022-10-09T05:41:50.447Z,10.30
2022-10-09T05:44:17.147Z,10.20
2022-10-09T05:46:43.887Z,10.20
2022-10-09T05:49:12.033Z,10.20
2022-10-09T05:51:42.769Z,10.10
2022-10-09T05:54:12.861Z,10.10
2022-10-09T05:56:39.659Z,10.20
2022-10-09T05:59:08.065Z,10.20
2022-10-09T06:01:36.216Z,10.20
2022-10-09T06:04:03.889Z,10.20
2022-10-09T06:06:33.266Z,10.10
2022-10-09T06:08:59.910Z,10.20
2022-10-09T06:11:28.602Z,10.20
2022-10-09T06:13:56.056Z,10.20
2022-10-09T06:16:24.090Z,10.30
2022-10-09T06:18:50.775Z,10.40
2022-10-09T06:21:17.536Z,10.40
2022-10-09T06:23:44.424Z,10.40
2022-10-09T06:26:14.056Z,10.40
2022-10-09T06:28:40.837Z,10.40
2022-10-09T06:31:07.613Z,10.40
2022-10-09T06:33:35.465Z,10.50
2022-10-09T06:36:09.763Z,10.50
2022-10-09T06:38:37.797Z,10.40
2022-10-09T06:41:05.729Z,10.40
2022-10-09T06:43:32.380Z,10.50
2022-10-09T06:46:03.368Z,10.60
2022-10-09T06:48:31.211Z,10.60
2022-10-09T06:51:01.506Z,10.70
2022-10-09T06:53:28.317Z,10.70
2022-10-09T06:55:55.904Z,10.90
2022-10-09T06:58:22.582Z,11.10
2022-10-09T07:00:49.244Z,11.20
2022-10-09T07:03:16.015Z,11.50
2022-10-09T07:05:42.670Z,11.60
2022-10-09T07:08:09.316Z,11.70
2022-10-09T07:10:35.955Z,11.70
2022-10-09T07:13:02.598Z,11.80
2022-10-09T07:15:29.345Z,11.90
2022-10-09T07:17:56.110Z,11.90
2022-10-09T07:20:25.887Z,11.90
2022-10-09T07:22:52.670Z,12.00
2022-10-09T07:25:19.411Z,12.00
2022-10-09T07:27:46.055Z,12.00
2022-10-09T07:30:12.800Z,12.00
2022-10-09T07:32:39.500Z,12.10
2022-10-09T07:35:06.603Z,12.20
2022-10-09T07:37:33.262Z,12.20
2022-10-09T07:39:59.890Z,12.20
2022-10-09T07:42:26.693Z,12.30
2022-10-09T07:44:53.316Z,12.50
2022-10-09T07:47:20.067Z,12.60
2022-10-09T07:49:46.904Z,12.70
2022-10-09T07:52:13.661Z,12.80
2022-10-09T07:54:51.490Z,12.80
2022-10-09T07:57:18.214Z,12.90
2022-10-09T07:59:45.110Z,13.10
2022-10-09T08:02:11.903Z,13.20
2022-10-09T08:04:38.760Z,13.20
2022-10-09T08:07:05.468Z,13.30
2022-10-09T08:09:32.231Z,13.30
2022-10-09T08:11:59.158Z,13.40
2022-10-09T08:14:26.607Z,13.40
2022-10-09T08:16:53.730Z,13.40
2022-10-09T08:19:20.398Z,13.50
2022-10-09T08:21:47.092Z,13.50
2022-10-09T08:24:13.773Z,13.60
2022-10-09T08:26:40.567Z,13.60
2022-10-09T08:29:08.599Z,13.60
2022-10-09T08:31:35.372Z,13.60
2022-10-09T08:34:03.497Z,13.60
2022-10-09T08:36:30.500Z,13.60
2022-10-09T08:38:57.448Z,13.60
2022-10-09T08:41:35.901Z,13.70
2022-10-09T08:44:10.121Z,13.70
2022-10-09T08:46:43.009Z,13.80
2022-10-09T08:49:16.043Z,13.70
2022-10-09T08:51:42.747Z,13.80
2022-10-09T08:54:09.329Z,13.80
2022-10-09T08:56:36.460Z,13.80
2022-10-09T08:59:03.118Z,13.90
2022-10-09T09:01:36.121Z,13.90
2022-10-09T09:04:17.954Z,13.90
2022-10-09T09:06:44.570Z,14.00
2022-10-09T09:09:11.200Z,14.10
2022-10-09T09:11:47.098Z,14.20
2022-10-09T09:14:19.876Z,14.30
2022-10-09T09:16:46.525Z,14.40
2022-10-09T09:19:23.541Z,14.40
2022-10-09T09:21:51.659Z,14.40
2022-10-09T09:24:19.489Z,14.40
2022-10-09T09:26:48.650Z,14.50
2022-10-09T09:29:17.694Z,14.50
2022-10-09T09:31:46.272Z,14.50
2022-10-09T09:34:18.490Z,14.50
2022-10-09T09:36:45.093Z,14.50
2022-10-09T09:40:07.866Z,14.50
2022-10-09T09:42:18.642Z,14.60
2022-10-09T09:45:03.335Z,14.60
2022-10-09T09:47:34.648Z,14.70
2022-10-09T09:50:02.339Z,14.70
2022-10-09T09:52:31.823Z,14.80
2022-10-09T09:54:58.795Z,14.80
2022-10-09T09:57:36.140Z,14.90
2022-10-09T10:00:21.380Z,15.00
2022-10-09T10:02:48.771Z,15.10
2022-10-09T10:05:26.261Z,15.10
2022-10-09T10:07:53.163Z,15.20
2022-10-09T10:10:25.391Z,15.20
2022-10-09T10:12:52.947Z,15.30
2022-10-09T10:15:25.056Z,15.30
2022-10-09T10:17:57.293Z,15.30
2022-10-09T10:20:24.034Z,15.40
2022-10-09T10:22:52.293Z,15.40
2022-10-09T10:25:20.935Z,15.50
2022-10-09T10:27:50.409Z,15.50
2022-10-09T10:30:19.609Z,15.50
2022-10-09T10:33:02.839Z,15.50
2022-10-09T10:35:32.138Z,15.50
2022-10-09T10:38:06.277Z,15.80
2022-10-09T10:40:35.181Z,15.80
2022-10-09T10:43:07.665Z,15.80
2022-10-09T10:45:34.492Z,15.80
2022-10-09T10:48:06.307Z,15.90
2022-10-09T10:50:39.296Z,16.00
2022-10-09T10:53:24.822Z,16.10
2022-10-09T10:56:00.218Z,16.10
2022-10-09T10:58:55.078Z,16.00
2022-10-09T11:01:29.101Z,16.10
2022-10-09T11:04:14.690Z,16.10
2022-10-09T11:06:51.405Z,16.10
2022-10-09T11:09:30.289Z,16.20
2022-10-09T11:12:24.589Z,16.30
2022-10-09T11:15:14.670Z,16.20
2022-10-09T11:17:56.255Z,16.40
2022-10-09T11:20:25.898Z,16.60
2022-10-09T11:23:03.215Z,16.70
2022-10-09T11:25:45.222Z,16.60
2022-10-09T11:28:14.852Z,16.60
2022-10-09T11:30:54.781Z,16.70
2022-10-09T11:33:36.906Z,16.80
2022-10-09T11:36:14.674Z,16.80
2022-10-09T11:38:47.627Z,16.60
2022-10-09T11:41:14.542Z,16.60
2022-10-09T11:43:45.448Z,16.70
2022-10-09T11:46:25.635Z,16.70
2022-10-09T11:48:59.936Z,16.70
2022-10-09T11:51:29.661Z,16.70
2022-10-09T11:53:56.414Z,16.70
2022-10-09T11:56:24.489Z,16.70
2022-10-09T11:58:59.090Z,16.60
2022-10-09T12:01:31.521Z,16.50
2022-10-09T12:04:23.867Z,16.40
2022-10-09T12:07:00.557Z,16.30
2022-10-09T12:09:41.916Z,16.40
2022-10-09T12:12:18.512Z,16.40
2022-10-09T12:14:46.754Z,16.40
2022-10-09T12:17:23.059Z,16.50
2022-10-09T12:19:58.605Z,16.50
2022-10-09T12:22:30.524Z,16.50
2022-10-09T12:25:05.034Z,16.60
2022-10-09T12:27:33.560Z,16.80
2022-10-09T12:30:07.573Z,16.80
2022-10-09T12:32:41.942Z,16.90
2022-10-09T12:35:28.804Z,17.00
2022-10-09T12:37:55.566Z,17.10
2022-10-09T12:40:23.817Z,17.10
2022-10-09T12:42:54.008Z,17.10
2022-10-09T12:45:22.567Z,17.10
2022-10-09T12:47:49.443Z,17.10
2022-10-09T12:50:16.053Z,17.00
2022-10-09T12:52:49.181Z,17.00
2022-10-09T12:55:26.668Z,17.00
2022-10-09T12:57:54.616Z,17.00
2022-10-09T13:00:21.272Z,17.00
2022-10-09T13:02:48.602Z,16.90
2022-10-09T13:05:15.953Z,17.00
2022-10-09T13:07:47.742Z,17.00
2022-10-09T13:10:17.582Z,16.90
2022-10-09T13:12:52.114Z,16.80
2022-10-09T13:15:25.014Z,16.70
2022-10-09T13:17:51.989Z,16.60
2022-10-09T13:20:18.700Z,16.70
2022-10-09T13:22:56.349Z,16.80
2022-10-09T13:25:49.488Z,16.70
2022-10-09T13:28:19.022Z,16.80
2022-10-09T13:30:45.874Z,16.90
2022-10-09T13:33:14.475Z,16.90
2022-10-09T13:35:41.280Z,17.00
2022-10-09T13:38:12.428Z,17.00
2022-10-09T13:40:39.231Z,16.90
2022-10-09T13:43:06.089Z,16.70
2022-10-09T13:45:32.733Z,16.70
2022-10-09T13:47:59.699Z,16.60
2022-10-09T13:50:26.306Z,16.70
2022-10-09T13:52:52.973Z,16.80
2022-10-09T13:55:19.643Z,16.80
2022-10-09T13:57:46.563Z,16.70
2022-10-09T14:00:13.473Z,16.70
2022-10-09T14:02:40.110Z,16.60
2022-10-09T14:05:07.112Z,16.60
2022-10-09T14:07:34.019Z,16.50
2022-10-09T14:10:00.639Z,16.50
2022-10-09T14:12:27.315Z,16.40
2022-10-09T14:14:54.234Z,16.40
2022-10-09T14:17:20.978Z,16.40
2022-10-09T14:19:48.244Z,16.40
2022-10-09T14:22:15.144Z,16.50
2022-10-09T14:24:41.869Z,16.40
2022-10-09T14:27:08.559Z,16.30
2022-10-09T14:29:37.417Z,16.30
2022-10-09T14:32:04.551Z,16.20
2022-10-09T14:34:31.215Z,16.20
2022-10-09T14:36:57.883Z,16.10
2022-10-09T14:39:24.530Z,16.20
2022-10-09T14:41:51.223Z,16.10
2022-10-09T14:44:17.840Z,16.10
2022-10-09T14:46:44.471Z,16.00
2022-10-09T14:49:11.528Z,16.00
2022-10-09T14:51:39.025Z,16.00
2022-10-09T14:54:06.443Z,16.00
2022-10-09T14:56:33.554Z,16.00
2022-10-09T14:59:01.114Z,16.00
2022-10-09T15:01:29.410Z,16.00
2022-10-09T15:03:56.159Z,15.90
2022-10-09T15:06:27.642Z,15.80
2022-10-09T15:08:55.857Z,15.80
2022-10-09T15:11:23.112Z,15.80
2022-10-09T15:13:49.756Z,15.70
2022-10-09T15:16:16.995Z,15.60
2022-10-09T15:18:44.122Z,15.50
2022-10-09T15:21:12.048Z,15.40
2022-10-09T15:23:38.834Z,15.30
2022-10-09T15:26:06.864Z,15.30
2022-10-09T15:28:34.731Z,15.20
2022-10-09T15:31:02.927Z,15.20
2022-10-09T15:33:29.810Z,15.10
2022-10-09T15:35:56.463Z,15.10
2022-10-09T15:38:24.471Z,15.00
2022-10-09T15:40:52.339Z,15.00
2022-10-09T15:43:20.031Z,14.90
2022-10-09T15:45:47.349Z,14.80
2022-10-09T15:48:18.464Z,14.80
2022-10-09T15:50:46.599Z,14.70
2022-10-09T15:53:14.968Z,14.60
2022-10-09T15:55:42.545Z,14.60
2022-10-09T15:58:09.442Z,14.50
2022-10-09T16:00:37.459Z,14.40
2022-10-09T16:03:04.972Z,14.40
2022-10-09T16:05:36.228Z,14.30
2022-10-09T16:08:02.863Z,14.20
2022-10-09T16:10:29.495Z,14.20
2022-10-09T16:12:56.338Z,14.10
2022-10-09T16:15:24.243Z,14.00
2022-10-09T16:17:51.529Z,14.00
2022-10-09T16:20:18.482Z,13.90
2022-10-09T16:22:45.127Z,13.90
2022-10-09T16:25:11.823Z,13.80
2022-10-09T16:27:38.529Z,13.70
2022-10-09T16:30:05.562Z,13.70
2022-10-09T16:32:32.263Z,13.60
2022-10-09T16:34:58.944Z,13.50
2022-10-09T16:37:25.578Z,13.50
2022-10-09T16:39:52.310Z,13.40
2022-10-09T16:42:19.046Z,13.40
2022-10-09T16:44:45.694Z,13.30
2022-10-09T16:47:14.010Z,13.30
2022-10-09T16:49:40.755Z,13.20
2022-10-09T16:52:07.435Z,13.20
2022-10-09T16:54:34.295Z,13.10
2022-10-09T16:57:01.972Z,13.10
2022-10-09T16:59:28.596Z,13.00
2022-10-09T17:01:57.177Z,12.90
2022-10-09T17:04:23.800Z,12.90
2022-10-09T17:06:51.219Z,12.90
2022-10-09T17:09:17.929Z,12.90
2022-10-09T17:11:44.981Z,12.80
2022-10-09T17:14:11.926Z,12.80
2022-10-09T17:16:39.747Z,12.70
2022-10-09T17:19:06.567Z,12.70
2022-10-09T17:21:34.636Z,12.70
2022-10-09T17:24:03.270Z,12.60
2022-10-09T17:26:30.794Z,12.60
2022-10-09T17:28:58.756Z,12.50
2022-10-09T17:31:25.585Z,12.50
2022-10-09T17:33:56.744Z,12.50
2022-10-09T17:36:25.008Z,12.40
2022-10-09T17:38:53.158Z,12.40
2022-10-09T17:41:23.900Z,12.40
2022-10-09T17:43:51.146Z,12.30
2022-10-09T17:46:18.520Z,12.30
2022-10-09T17:48:50.187Z,12.30
2022-10-09T17:51:18.684Z,12.20
2022-10-09T17:53:46.136Z,12.20
2022-10-09T17:56:13.261Z,12.10
2022-10-09T17:58:40.261Z,12.10
2022-10-09T18:01:07.546Z,12.10
2022-10-09T18:03:34.461Z,12.10
2022-10-09T18:06:04.510Z,12.10
2022-10-09T18:08:31.241Z,12.00
2022-10-09T18:10:58.839Z,12.00
2022-10-09T18:13:25.577Z,11.90
2022-10-09T18:15:52.245Z,11.90
2022-10-09T18:18:19.005Z,11.90
2022-10-09T18:20:45.690Z,11.90
2022-10-09T18:23:12.489Z,11.80
2022-10-09T18:25:43.214Z,11.70
2022-10-09T18:28:10.713Z,11.70
2022-10-09T18:30:41.634Z,11.70
2022-10-09T18:33:08.302Z,11.70
2022-10-09T18:35:36.387Z,11.70
2022-10-09T18:38:03.399Z,11.60
2022-10-09T18:40:30.073Z,11.60
2022-10-09T18:42:56.901Z,11.60
2022-10-09T18:45:23.589Z,11.50
2022-10-09T18:47:52.970Z,11.40
2022-10-09T18:50:20.473Z,11.40
2022-10-09T18:52:47.916Z,11.40
2022-10-09T18:55:16.804Z,11.30
2022-10-09T18:57:44.130Z,11.30
2022-10-09T19:00:11.459Z,11.30
2022-10-09T19:05:04.994Z,11.20
2022-10-09T19:07:31.763Z,11.20
2022-10-09T19:09:58.643Z,11.20
2022-10-09T19:12:25.617Z,11.20
2022-10-09T19:14:52.528Z,11.20
2022-10-09T19:17:19.418Z,11.20
2022-10-09T19:19:46.188Z,11.20
2022-10-09T19:22:16.436Z,11.10
2022-10-09T19:24:44.907Z,11.20
2022-10-09T19:27:11.821Z,11.10
2022-10-09T19:29:38.636Z,11.10
2022-10-09T19:32:05.427Z,11.00
2022-10-09T19:34:32.190Z,11.00
2022-10-09T19:36:59.066Z,11.00
2022-10-09T19:39:28.022Z,11.00
2022-10-09T19:41:54.715Z,11.00
2022-10-09T19:44:21.627Z,11.00
2022-10-09T19:46:48.711Z,11.00
2022-10-09T19:49:15.706Z,11.00
2022-10-09T19:51:42.477Z,11.00
2022-10-09T19:54:09.892Z,11.00
2022-10-09T19:56:36.815Z,10.90
2022-10-09T19:59:05.184Z,10.90
2022-10-09T20:01:33.116Z,10.90
2022-10-09T20:04:01.050Z,10.90
2022-10-09T20:06:28.016Z,10.90
2022-10-09T20:08:54.801Z,10.80
2022-10-09T20:11:21.613Z,10.80
2022-10-09T20:13:52.076Z,10.80
2022-10-09T20:16:21.565Z,10.80
2022-10-09T20:18:48.259Z,10.80
2022-10-09T20:21:16.297Z,10.80
2022-10-09T20:23:44.403Z,10.70
2022-10-09T20:26:12.529Z,10.70
2022-10-09T20:28:39.232Z,10.70
2022-10-09T20:31:08.141Z,10.70
2022-10-09T20:33:35.666Z,10.70
2022-10-09T20:36:03.232Z,10.70
2022-10-09T20:38:30.185Z,10.70
2022-10-09T20:41:03.902Z,10.70
2022-10-09T20:43:30.637Z,10.70
2022-10-09T20:45:57.477Z,10.60
2022-10-09T20:48:24.177Z,10.60
2022-10-09T20:50:50.817Z,10.60
2022-10-09T20:53:17.541Z,10.50
2022-10-09T20:55:44.321Z,10.50
2022-10-09T20:58:10.941Z,10.50
2022-10-09T21:00:41.326Z,10.50
2022-10-09T21:03:12.209Z,10.40
2022-10-09T21:05:42.980Z,10.40
2022-10-09T21:08:09.735Z,10.40
2022-10-09T21:10:42.177Z,10.30
2022-10-09T21:13:08.819Z,10.30
2022-10-09T21:15:35.493Z,10.30
2022-10-09T21:18:03.737Z,10.30
2022-10-09T21:20:30.381Z,10.30
2022-10-09T21:22:57.067Z,10.20
2022-10-09T21:25:23.715Z,10.20
2022-10-09T21:27:50.423Z,10.20
2022-10-09T21:30:17.091Z,10.20
2022-10-09T21:32:43.794Z,10.20
2022-10-09T21:35:10.455Z,10.20
2022-10-09T21:37:37.655Z,10.20
2022-10-09T21:40:04.529Z,10.20
2022-10-09T21:42:31.203Z,10.10
2022-10-09T21:44:58.046Z,10.10
2022-10-09T21:47:25.363Z,10.10
2022-10-09T21:49:52.063Z,10.00
2022-10-09T21:52:18.730Z,10.00
2022-10-09T21:54:45.381Z,10.00
2022-10-09T21:57:13.296Z,10.00
2022-10-09T21:59:39.952Z,10.10
2022-10-09T22:02:06.610Z,10.00
2022-10-09T22:04:33.277Z,10.00
2022-10-09T22:06:59.906Z,10.00
2022-10-09T22:09:26.632Z,10.00
2022-10-09T22:11:53.275Z,10.00
2022-10-09T22:14:20.102Z,10.00
2022-10-09T22:16:46.787Z,10.00
2022-10-09T22:19:13.566Z,10.00
2022-10-09T22:21:40.212Z,10.00
2022-10-09T22:24:07.061Z,10.00
2022-10-09T22:26:33.806Z,10.00
2022-10-09T22:29:00.462Z,10.00
2022-10-09T22:31:27.372Z,10.00
2022-10-09T22:33:58.225Z,9.90
2022-10-09T22:36:26.058Z,9.90
2022-10-09T22:38:53.901Z,9.90
2022-10-09T22:41:21.594Z,9.90
2022-10-09T22:43:49.237Z,9.90
2022-10-09T22:46:17.270Z,9.80
2022-10-09T22:48:44.401Z,9.80
2022-10-09T22:51:12.123Z,9.80
2022-10-09T22:53:39.283Z,9.80
2022-10-09T22:56:07.010Z,9.80
2022-10-09T22:58:34.261Z,9.80
2022-10-09T23:01:08.480Z,9.80
2022-10-09T23:03:35.193Z,9.70
2022-10-09T23:06:12.534Z,9.70
2022-10-09T23:08:39.969Z,9.60
2022-10-09T23:11:07.255Z,9.50
2022-10-09T23:13:34.465Z,9.50
2022-10-09T23:16:01.999Z,9.50
2022-10-09T23:18:29.087Z,9.50
2022-10-09T23:20:55.917Z,9.50
2022-10-09T23:23:22.942Z,9.50
2022-10-09T23:25:49.602Z,9.50
2022-10-09T23:28:16.269Z,9.50
2022-10-09T23:30:42.958Z,9.50
2022-10-09T23:33:09.621Z,9.50
2022-10-09T23:35:39.869Z,9.50
2022-10-09T23:38:06.496Z,9.50
2022-10-09T23:40:33.313Z,9.50
2022-10-09T23:42:59.998Z,9.50
2022-10-09T23:45:26.801Z,9.40
2022-10-09T23:47:53.635Z,9.40
2022-10-09T23:50:20.300Z,9.40
2022-10-09T23:52:47.503Z,9.40
2022-10-09T23:55:14.630Z,9.40
2022-10-09T23:57:41.459Z,9.40
